sensor_id;sensor_type;location;lat;lon;timestamp;temperature;humidity
11136;DHT22;5622;50.840;4.948;2022-09-09T00:01:28;15.60;99.90
11136;DHT22;5622;50.840;4.948;2022-09-09T00:04:00;15.50;99.90
11136;DHT22;5622;50.840;4.948;2022-09-09T00:06:32;15.60;99.90
11136;DHT22;5622;50.840;4.948;2022-09-09T00:09:04;15.60;99.90
11136;DHT22;5622;50.840;4.948;2022-09-09T00:11:41;15.50;99.90
11136;DHT22;5622;50.840;4.948;2022-09-09T00:14:16;15.60;99.90
11136;DHT22;5622;50.840;4.948;2022-09-09T00:16:51;15.60;99.90
11136;DHT22;5622;50.840;4.948;2022-09-09T00:19:28;15.60;99.90
11136;DHT22;5622;50.840;4.948;2022-09-09T00:22:07;15.60;99.90
11136;DHT22;5622;50.840;4.948;2022-09-09T00:24:43;15.60;99.90
11136;DHT22;5622;50.840;4.948;2022-09-09T00:27:21;15.80;99.90
11136;DHT22;5622;50.840;4.948;2022-09-09T00:29:56;15.50;99.90
11136;DHT22;5622;50.840;4.948;2022-09-09T00:32:30;15.50;99.90
11136;DHT22;5622;50.840;4.948;2022-09-09T00:35:02;15.50;99.90
11136;DHT22;5622;50.840;4.948;2022-09-09T00:37:33;15.50;99.90
11136;DHT22;5622;50.840;4.948;2022-09-09T00:40:05;15.40;99.90
11136;DHT22;5622;50.840;4.948;2022-09-09T00:42:42;15.50;99.90
11136;DHT22;5622;50.840;4.948;2022-09-09T00:45:23;15.50;99.90
11136;DHT22;5622;50.840;4.948;2022-09-09T00:47:59;15.50;99.90
11136;DHT22;5622;50.840;4.948;2022-09-09T00:50:45;15.40;99.90
11136;DHT22;5622;50.840;4.948;2022-09-09T00:53:27;15.50;99.90
11136;DHT22;5622;50.840;4.948;2022-09-09T00:56:03;15.50;99.90
11136;DHT22;5622;50.840;4.948;2022-09-09T00:58:34;15.40;99.90
11136;DHT22;5622;50.840;4.948;2022-09-09T01:01:04;15.60;99.90
11136;DHT22;5622;50.840;4.948;2022-09-09T01:03:37;15.50;99.90
11136;DHT22;5622;50.840;4.948;2022-09-09T01:06:20;15.50;99.90
11136;DHT22;5622;50.840;4.948;2022-09-09T01:09:05;15.50;99.90
11136;DHT22;5622;50.840;4.948;2022-09-09T01:11:43;15.60;99.90
11136;DHT22;5622;50.840;4.948;2022-09-09T01:14:28;15.60;99.90
11136;DHT22;5622;50.840;4.948;2022-09-09T01:17:01;15.50;99.90
11136;DHT22;5622;50.840;4.948;2022-09-09T01:19:44;15.60;99.90
11136;DHT22;5622;50.840;4.948;2022-09-09T01:22:20;15.60;99.90
11136;DHT22;5622;50.840;4.948;2022-09-09T01:27:55;15.60;99.90
11136;DHT22;5622;50.840;4.948;2022-09-09T01:30:24;17.00;99.90
11136;DHT22;5622;50.840;4.948;2022-09-09T01:32:55;15.60;99.90
11136;DHT22;5622;50.840;4.948;2022-09-09T01:35:37;15.50;99.90
11136;DHT22;5622;50.840;4.948;2022-09-09T01:38:05;15.50;99.90
11136;DHT22;5622;50.840;4.948;2022-09-09T01:40:33;15.10;99.90
11136;DHT22;5622;50.840;4.948;2022-09-09T01:43:04;15.50;99.90
11136;DHT22;5622;50.840;4.948;2022-09-09T01:45:33;15.70;99.90
11136;DHT22;5622;50.840;4.948;2022-09-09T01:48:04;15.60;99.90
11136;DHT22;5622;50.840;4.948;2022-09-09T01:50:31;15.60;99.90
11136;DHT22;5622;50.840;4.948;2022-09-09T01:53:00;15.50;99.90
11136;DHT22;5622;50.840;4.948;2022-09-09T01:55:30;15.60;99.90
11136;DHT22;5622;50.840;4.948;2022-09-09T01:58:11;15.50;99.90
11136;DHT22;5622;50.840;4.948;2022-09-09T02:00:49;15.50;99.90
11136;DHT22;5622;50.840;4.948;2022-09-09T02:03:23;15.60;99.90
11136;DHT22;5622;50.840;4.948;2022-09-09T02:05:59;15.60;99.90
11136;DHT22;5622;50.840;4.948;2022-09-09T02:08:38;15.60;99.90
11136;DHT22;5622;50.840;4.948;2022-09-09T02:11:13;15.60;99.90
11136;DHT22;5622;50.840;4.948;2022-09-09T02:13:43;15.60;99.90
11136;DHT22;5622;50.840;4.948;2022-09-09T02:16:15;15.60;99.90
11136;DHT22;5622;50.840;4.948;2022-09-09T02:18:48;16.00;99.90
11136;DHT22;5622;50.840;4.948;2022-09-09T02:21:18;15.60;99.90
11136;DHT22;5622;50.840;4.948;2022-09-09T02:23:49;15.60;99.90
11136;DHT22;5622;50.840;4.948;2022-09-09T02:26:19;15.60;99.90
11136;DHT22;5622;50.840;4.948;2022-09-09T02:28:50;15.60;99.90
11136;DHT22;5622;50.840;4.948;2022-09-09T02:31:19;15.70;99.90
11136;DHT22;5622;50.840;4.948;2022-09-09T02:33:51;15.50;99.90
11136;DHT22;5622;50.840;4.948;2022-09-09T02:36:23;15.80;99.90
11136;DHT22;5622;50.840;4.948;2022-09-09T02:38:53;15.60;99.90
11136;DHT22;5622;50.840;4.948;2022-09-09T02:41:32;15.60;99.90
11136;DHT22;5622;50.840;4.948;2022-09-09T02:44:04;15.60;99.90
11136;DHT22;5622;50.840;4.948;2022-09-09T02:46:55;15.70;99.90
11136;DHT22;5622;50.840;4.948;2022-09-09T02:49:30;15.70;99.90
11136;DHT22;5622;50.840;4.948;2022-09-09T02:52:04;15.60;99.90
11136;DHT22;5622;50.840;4.948;2022-09-09T02:54:34;15.70;99.90
11136;DHT22;5622;50.840;4.948;2022-09-09T02:57:08;15.60;99.90
11136;DHT22;5622;50.840;4.948;2022-09-09T02:59:38;15.60;99.90
11136;DHT22;5622;50.840;4.948;2022-09-09T03:02:07;15.50;99.90
11136;DHT22;5622;50.840;4.948;2022-09-09T03:04:37;15.60;99.90
11136;DHT22;5622;50.840;4.948;2022-09-09T03:07:04;15.70;99.90
11136;DHT22;5622;50.840;4.948;2022-09-09T03:09:32;15.70;99.90
11136;DHT22;5622;50.840;4.948;2022-09-09T03:12:01;15.60;99.90
11136;DHT22;5622;50.840;4.948;2022-09-09T03:14:30;15.60;99.90
11136;DHT22;5622;50.840;4.948;2022-09-09T03:16:59;15.60;99.90
11136;DHT22;5622;50.840;4.948;2022-09-09T03:19:28;15.50;99.90
11136;DHT22;5622;50.840;4.948;2022-09-09T03:21:55;15.60;99.90
11136;DHT22;5622;50.840;4.948;2022-09-09T03:24:24;15.60;99.90
11136;DHT22;5622;50.840;4.948;2022-09-09T03:26:51;15.50;99.90
11136;DHT22;5622;50.840;4.948;2022-09-09T03:29:19;15.50;99.90
11136;DHT22;5622;50.840;4.948;2022-09-09T03:31:49;15.50;99.90
11136;DHT22;5622;50.840;4.948;2022-09-09T03:34:23;15.40;99.90
11136;DHT22;5622;50.840;4.948;2022-09-09T03:36:51;15.50;99.90
11136;DHT22;5622;50.840;4.948;2022-09-09T03:39:19;15.50;99.90
11136;DHT22;5622;50.840;4.948;2022-09-09T03:41:46;15.60;99.90
11136;DHT22;5622;50.840;4.948;2022-09-09T03:44:14;15.60;99.90
11136;DHT22;5622;50.840;4.948;2022-09-09T03:46:41;15.50;99.90
11136;DHT22;5622;50.840;4.948;2022-09-09T03:49:09;15.50;99.90
11136;DHT22;5622;50.840;4.948;2022-09-09T03:51:38;15.50;99.90
11136;DHT22;5622;50.840;4.948;2022-09-09T03:54:09;15.50;99.90
11136;DHT22;5622;50.840;4.948;2022-09-09T03:56:39;15.50;99.90
11136;DHT22;5622;50.840;4.948;2022-09-09T03:59:08;15.60;99.90
11136;DHT22;5622;50.840;4.948;2022-09-09T04:01:37;15.50;99.90
11136;DHT22;5622;50.840;4.948;2022-09-09T04:04:06;15.50;99.90
11136;DHT22;5622;50.840;4.948;2022-09-09T04:06:35;15.50;99.90
11136;DHT22;5622;50.840;4.948;2022-09-09T04:09:04;15.50;99.90
11136;DHT22;5622;50.840;4.948;2022-09-09T04:11:32;15.50;99.90
11136;DHT22;5622;50.840;4.948;2022-09-09T04:14:02;15.50;99.90
11136;DHT22;5622;50.840;4.948;2022-09-09T04:16:33;15.60;99.90
11136;DHT22;5622;50.840;4.948;2022-09-09T04:19:05;15.50;99.90
11136;DHT22;5622;50.840;4.948;2022-09-09T04:21:35;15.50;99.90
11136;DHT22;5622;50.840;4.948;2022-09-09T04:24:04;15.20;99.90
11136;DHT22;5622;50.840;4.948;2022-09-09T04:26:32;15.50;99.90
11136;DHT22;5622;50.840;4.948;2022-09-09T04:29:02;15.40;99.90
11136;DHT22;5622;50.840;4.948;2022-09-09T04:31:29;15.50;99.90
11136;DHT22;5622;50.840;4.948;2022-09-09T04:33:57;15.40;99.90
11136;DHT22;5622;50.840;4.948;2022-09-09T04:36:30;15.40;99.90
11136;DHT22;5622;50.840;4.948;2022-09-09T04:38:57;15.50;99.90
11136;DHT22;5622;50.840;4.948;2022-09-09T04:41:26;15.40;99.90
11136;DHT22;5622;50.840;4.948;2022-09-09T04:43:57;15.40;99.90
11136;DHT22;5622;50.840;4.948;2022-09-09T04:46:25;15.40;99.90
11136;DHT22;5622;50.840;4.948;2022-09-09T04:48:53;15.40;99.90
11136;DHT22;5622;50.840;4.948;2022-09-09T04:51:22;15.30;99.90
11136;DHT22;5622;50.840;4.948;2022-09-09T04:53:50;15.30;99.90
11136;DHT22;5622;50.840;4.948;2022-09-09T04:56:19;15.30;99.90
11136;DHT22;5622;50.840;4.948;2022-09-09T04:58:53;15.50;99.90
11136;DHT22;5622;50.840;4.948;2022-09-09T05:01:25;15.40;99.90
11136;DHT22;5622;50.840;4.948;2022-09-09T05:03:55;15.60;99.90
11136;DHT22;5622;50.840;4.948;2022-09-09T05:06:24;15.40;99.90
11136;DHT22;5622;50.840;4.948;2022-09-09T05:08:51;15.30;99.90
11136;DHT22;5622;50.840;4.948;2022-09-09T05:11:22;15.40;99.90
11136;DHT22;5622;50.840;4.948;2022-09-09T05:13:53;15.40;99.90
11136;DHT22;5622;50.840;4.948;2022-09-09T05:16:24;15.40;99.90
11136;DHT22;5622;50.840;4.948;2022-09-09T05:18:53;15.40;99.90
11136;DHT22;5622;50.840;4.948;2022-09-09T05:21:23;15.40;99.90
11136;DHT22;5622;50.840;4.948;2022-09-09T05:23:53;15.40;99.90
11136;DHT22;5622;50.840;4.948;2022-09-09T05:26:21;15.50;99.90
11136;DHT22;5622;50.840;4.948;2022-09-09T05:34:14;15.40;99.90
11136;DHT22;5622;50.840;4.948;2022-09-09T05:36:52;15.30;99.90
11136;DHT22;5622;50.840;4.948;2022-09-09T05:39:21;15.50;99.90
11136;DHT22;5622;50.840;4.948;2022-09-09T05:41:49;15.40;99.90
11136;DHT22;5622;50.840;4.948;2022-09-09T05:44:17;15.40;99.90
11136;DHT22;5622;50.840;4.948;2022-09-09T05:46:45;15.40;99.90
11136;DHT22;5622;50.840;4.948;2022-09-09T05:49:14;15.50;99.90
11136;DHT22;5622;50.840;4.948;2022-09-09T05:51:51;15.50;99.90
11136;DHT22;5622;50.840;4.948;2022-09-09T05:54:35;15.50;99.90
11136;DHT22;5622;50.840;4.948;2022-09-09T05:57:09;15.50;99.90
11136;DHT22;5622;50.840;4.948;2022-09-09T05:59:36;15.50;99.90
11136;DHT22;5622;50.840;4.948;2022-09-09T06:05:38;15.50;99.90
11136;DHT22;5622;50.840;4.948;2022-09-09T06:08:11;15.50;99.90
11136;DHT22;5622;50.840;4.948;2022-09-09T06:10:40;15.60;99.90
11136;DHT22;5622;50.840;4.948;2022-09-09T06:13:07;15.10;99.90
11136;DHT22;5622;50.840;4.948;2022-09-09T06:15:35;15.60;99.90
11136;DHT22;5622;50.840;4.948;2022-09-09T06:22:16;15.70;99.90
11136;DHT22;5622;50.840;4.948;2022-09-09T06:25:15;15.70;99.90
11136;DHT22;5622;50.840;4.948;2022-09-09T06:27:56;15.70;99.90
11136;DHT22;5622;50.840;4.948;2022-09-09T06:30:24;15.80;99.90
11136;DHT22;5622;50.840;4.948;2022-09-09T06:32:54;15.80;99.90
11136;DHT22;5622;50.840;4.948;2022-09-09T06:35:22;15.80;99.90
11136;DHT22;5622;50.840;4.948;2022-09-09T06:37:51;15.90;99.90
11136;DHT22;5622;50.840;4.948;2022-09-09T06:40:18;15.90;99.90
11136;DHT22;5622;50.840;4.948;2022-09-09T06:42:46;15.90;99.90
11136;DHT22;5622;50.840;4.948;2022-09-09T06:45:14;15.90;99.90
11136;DHT22;5622;50.840;4.948;2022-09-09T06:47:41;16.00;99.90
11136;DHT22;5622;50.840;4.948;2022-09-09T06:50:08;16.00;99.90
11136;DHT22;5622;50.840;4.948;2022-09-09T06:52:36;16.00;99.90
11136;DHT22;5622;50.840;4.948;2022-09-09T06:55:06;16.00;99.90
11136;DHT22;5622;50.840;4.948;2022-09-09T06:57:34;15.90;99.90
11136;DHT22;5622;50.840;4.948;2022-09-09T07:00:02;16.10;99.90
11136;DHT22;5622;50.840;4.948;2022-09-09T07:02:30;16.10;99.90
11136;DHT22;5622;50.840;4.948;2022-09-09T07:04:57;16.10;99.90
11136;DHT22;5622;50.840;4.948;2022-09-09T07:07:25;16.10;99.90
11136;DHT22;5622;50.840;4.948;2022-09-09T07:09:52;16.20;99.90
11136;DHT22;5622;50.840;4.948;2022-09-09T07:12:21;16.20;99.90
11136;DHT22;5622;50.840;4.948;2022-09-09T07:14:53;16.20;99.90
11136;DHT22;5622;50.840;4.948;2022-09-09T07:17:23;16.30;99.90
11136;DHT22;5622;50.840;4.948;2022-09-09T07:19:51;16.30;99.90
11136;DHT22;5622;50.840;4.948;2022-09-09T07:22:19;16.30;99.90
11136;DHT22;5622;50.840;4.948;2022-09-09T07:24:47;16.40;99.90
11136;DHT22;5622;50.840;4.948;2022-09-09T07:27:15;16.40;99.90
11136;DHT22;5622;50.840;4.948;2022-09-09T07:29:47;16.40;99.90
11136;DHT22;5622;50.840;4.948;2022-09-09T07:32:16;16.40;99.90
11136;DHT22;5622;50.840;4.948;2022-09-09T07:34:45;16.40;99.90
11136;DHT22;5622;50.840;4.948;2022-09-09T07:37:38;16.40;99.90
11136;DHT22;5622;50.840;4.948;2022-09-09T07:40:16;16.50;99.90
11136;DHT22;5622;50.840;4.948;2022-09-09T07:42:53;16.60;99.90
11136;DHT22;5622;50.840;4.948;2022-09-09T07:45:24;16.50;99.90
11136;DHT22;5622;50.840;4.948;2022-09-09T07:47:55;16.40;99.90
11136;DHT22;5622;50.840;4.948;2022-09-09T07:50:29;16.40;99.90
11136;DHT22;5622;50.840;4.948;2022-09-09T07:52:59;16.40;99.90
11136;DHT22;5622;50.840;4.948;2022-09-09T07:55:28;16.40;99.90
11136;DHT22;5622;50.840;4.948;2022-09-09T07:57:56;16.40;99.90
11136;DHT22;5622;50.840;4.948;2022-09-09T08:00:25;16.40;99.90
11136;DHT22;5622;50.840;4.948;2022-09-09T08:02:53;16.50;99.90
11136;DHT22;5622;50.840;4.948;2022-09-09T08:05:21;16.50;99.90
11136;DHT22;5622;50.840;4.948;2022-09-09T08:07:51;16.50;99.90
11136;DHT22;5622;50.840;4.948;2022-09-09T08:10:18;16.60;99.90
11136;DHT22;5622;50.840;4.948;2022-09-09T08:12:46;16.60;99.90
11136;DHT22;5622;50.840;4.948;2022-09-09T08:15:15;16.60;99.90
11136;DHT22;5622;50.840;4.948;2022-09-09T08:17:45;16.60;99.90
11136;DHT22;5622;50.840;4.948;2022-09-09T08:20:16;16.70;99.90
11136;DHT22;5622;50.840;4.948;2022-09-09T08:23:00;16.80;99.90
11136;DHT22;5622;50.840;4.948;2022-09-09T08:25:37;16.70;99.90
11136;DHT22;5622;50.840;4.948;2022-09-09T08:28:06;16.90;99.90
11136;DHT22;5622;50.840;4.948;2022-09-09T08:30:35;16.80;99.90
11136;DHT22;5622;50.840;4.948;2022-09-09T08:33:09;16.70;99.90
11136;DHT22;5622;50.840;4.948;2022-09-09T08:35:36;16.80;99.90
11136;DHT22;5622;50.840;4.948;2022-09-09T08:38:04;16.70;99.90
11136;DHT22;5622;50.840;4.948;2022-09-09T08:40:36;16.80;99.90
11136;DHT22;5622;50.840;4.948;2022-09-09T08:43:08;16.80;99.90
11136;DHT22;5622;50.840;4.948;2022-09-09T08:45:39;16.70;99.90
11136;DHT22;5622;50.840;4.948;2022-09-09T08:48:23;16.90;99.90
11136;DHT22;5622;50.840;4.948;2022-09-09T08:50:56;16.90;99.90
11136;DHT22;5622;50.840;4.948;2022-09-09T08:53:28;17.00;99.90
11136;DHT22;5622;50.840;4.948;2022-09-09T08:55:58;17.00;99.90
11136;DHT22;5622;50.840;4.948;2022-09-09T08:58:28;17.00;99.90
11136;DHT22;5622;50.840;4.948;2022-09-09T09:01:11;17.20;99.90
11136;DHT22;5622;50.840;4.948;2022-09-09T09:03:48;17.00;99.90
11136;DHT22;5622;50.840;4.948;2022-09-09T09:06:26;17.10;99.90
11136;DHT22;5622;50.840;4.948;2022-09-09T09:09:05;17.10;99.90
11136;DHT22;5622;50.840;4.948;2022-09-09T09:11:36;17.10;99.90
11136;DHT22;5622;50.840;4.948;2022-09-09T09:14:10;17.10;99.90
11136;DHT22;5622;50.840;4.948;2022-09-09T09:16:46;17.10;99.90
11136;DHT22;5622;50.840;4.948;2022-09-09T09:19:17;17.10;99.90
11136;DHT22;5622;50.840;4.948;2022-09-09T09:21:51;17.10;99.90
11136;DHT22;5622;50.840;4.948;2022-09-09T09:24:23;17.20;99.90
11136;DHT22;5622;50.840;4.948;2022-09-09T09:26:51;17.20;99.90
11136;DHT22;5622;50.840;4.948;2022-09-09T09:29:20;17.20;99.90
11136;DHT22;5622;50.840;4.948;2022-09-09T09:31:51;17.20;99.90
11136;DHT22;5622;50.840;4.948;2022-09-09T09:37:49;17.10;99.90
11136;DHT22;5622;50.840;4.948;2022-09-09T09:40:18;17.10;99.90
11136;DHT22;5622;50.840;4.948;2022-09-09T09:42:51;17.00;99.90
11136;DHT22;5622;50.840;4.948;2022-09-09T09:45:27;17.00;99.90
11136;DHT22;5622;50.840;4.948;2022-09-09T09:48:02;17.00;99.90
11136;DHT22;5622;50.840;4.948;2022-09-09T09:50:30;16.90;99.90
11136;DHT22;5622;50.840;4.948;2022-09-09T09:53:02;16.80;99.90
11136;DHT22;5622;50.840;4.948;2022-09-09T09:55:31;16.80;99.90
11136;DHT22;5622;50.840;4.948;2022-09-09T09:58:03;16.70;99.90
11136;DHT22;5622;50.840;4.948;2022-09-09T10:00:32;16.70;99.90
11136;DHT22;5622;50.840;4.948;2022-09-09T10:06:32;16.70;99.90
11136;DHT22;5622;50.840;4.948;2022-09-09T10:09:01;16.70;99.90
11136;DHT22;5622;50.840;4.948;2022-09-09T10:11:43;16.60;99.90
11136;DHT22;5622;50.840;4.948;2022-09-09T10:14:17;16.70;99.90
11136;DHT22;5622;50.840;4.948;2022-09-09T10:16:55;16.40;99.90
11136;DHT22;5622;50.840;4.948;2022-09-09T10:19:30;16.70;99.90
11136;DHT22;5622;50.840;4.948;2022-09-09T10:22:23;16.70;99.90
11136;DHT22;5622;50.840;4.948;2022-09-09T10:30:49;16.80;99.90
11136;DHT22;5622;50.840;4.948;2022-09-09T10:33:28;16.80;99.90
11136;DHT22;5622;50.840;4.948;2022-09-09T10:36:02;16.80;99.90
11136;DHT22;5622;50.840;4.948;2022-09-09T10:38:37;16.80;99.90
11136;DHT22;5622;50.840;4.948;2022-09-09T10:41:15;16.90;99.90
11136;DHT22;5622;50.840;4.948;2022-09-09T10:44:05;16.90;99.90
11136;DHT22;5622;50.840;4.948;2022-09-09T10:46:39;16.80;99.90
11136;DHT22;5622;50.840;4.948;2022-09-09T10:49:21;16.80;99.90
11136;DHT22;5622;50.840;4.948;2022-09-09T10:51:56;16.90;99.90
11136;DHT22;5622;50.840;4.948;2022-09-09T10:54:35;16.90;99.90
11136;DHT22;5622;50.840;4.948;2022-09-09T10:57:13;16.90;99.90
11136;DHT22;5622;50.840;4.948;2022-09-09T10:59:44;16.90;99.90
11136;DHT22;5622;50.840;4.948;2022-09-09T11:02:16;17.00;99.90
11136;DHT22;5622;50.840;4.948;2022-09-09T11:04:49;17.00;99.90
11136;DHT22;5622;50.840;4.948;2022-09-09T11:07:33;17.00;99.90
11136;DHT22;5622;50.840;4.948;2022-09-09T11:10:05;17.10;99.90
11136;DHT22;5622;50.840;4.948;2022-09-09T11:12:38;17.10;99.90
11136;DHT22;5622;50.840;4.948;2022-09-09T11:15:09;17.10;99.90
11136;DHT22;5622;50.840;4.948;2022-09-09T11:17:46;17.20;99.90
11136;DHT22;5622;50.840;4.948;2022-09-09T11:20:15;17.20;99.90
11136;DHT22;5622;50.840;4.948;2022-09-09T11:22:47;17.20;99.90
11136;DHT22;5622;50.840;4.948;2022-09-09T11:25:17;17.30;99.90
11136;DHT22;5622;50.840;4.948;2022-09-09T11:27:56;17.20;99.90
11136;DHT22;5622;50.840;4.948;2022-09-09T11:30:31;17.20;99.90
11136;DHT22;5622;50.840;4.948;2022-09-09T11:36:29;17.30;99.90
11136;DHT22;5622;50.840;4.948;2022-09-09T11:39:05;17.30;99.90
11136;DHT22;5622;50.840;4.948;2022-09-09T11:41:35;17.30;99.90
11136;DHT22;5622;50.840;4.948;2022-09-09T11:44:11;17.30;99.90
11136;DHT22;5622;50.840;4.948;2022-09-09T11:46:39;17.40;99.90
11136;DHT22;5622;50.840;4.948;2022-09-09T11:49:26;17.50;99.90
11136;DHT22;5622;50.840;4.948;2022-09-09T11:51:54;17.50;99.90
11136;DHT22;5622;50.840;4.948;2022-09-09T11:54:32;17.60;99.90
11136;DHT22;5622;50.840;4.948;2022-09-09T11:57:02;17.60;99.90
11136;DHT22;5622;50.840;4.948;2022-09-09T11:59:32;17.60;99.90
11136;DHT22;5622;50.840;4.948;2022-09-09T12:02:01;17.60;99.90
11136;DHT22;5622;50.840;4.948;2022-09-09T12:04:35;17.70;99.90
11136;DHT22;5622;50.840;4.948;2022-09-09T12:07:31;17.60;99.90
11136;DHT22;5622;50.840;4.948;2022-09-09T12:10:02;17.60;99.90
11136;DHT22;5622;50.840;4.948;2022-09-09T12:12:32;17.70;99.90
11136;DHT22;5622;50.840;4.948;2022-09-09T12:15:17;17.70;99.90
11136;DHT22;5622;50.840;4.948;2022-09-09T12:17:48;17.70;99.90
11136;DHT22;5622;50.840;4.948;2022-09-09T12:20:18;17.70;99.90
11136;DHT22;5622;50.840;4.948;2022-09-09T12:22:52;17.70;99.90
11136;DHT22;5622;50.840;4.948;2022-09-09T12:25:30;17.80;99.90
11136;DHT22;5622;50.840;4.948;2022-09-09T12:28:04;17.80;99.90
11136;DHT22;5622;50.840;4.948;2022-09-09T12:30:48;17.80;99.90
11136;DHT22;5622;50.840;4.948;2022-09-09T12:33:18;17.90;99.90
11136;DHT22;5622;50.840;4.948;2022-09-09T12:35:52;17.90;99.90
11136;DHT22;5622;50.840;4.948;2022-09-09T12:38:26;17.90;99.90
11136;DHT22;5622;50.840;4.948;2022-09-09T12:40:55;17.90;99.90
11136;DHT22;5622;50.840;4.948;2022-09-09T12:43:24;17.90;99.90
11136;DHT22;5622;50.840;4.948;2022-09-09T12:45:56;17.90;99.90
11136;DHT22;5622;50.840;4.948;2022-09-09T12:48:32;17.90;99.90
11136;DHT22;5622;50.840;4.948;2022-09-09T12:51:00;17.90;99.90
11136;DHT22;5622;50.840;4.948;2022-09-09T12:53:32;18.00;99.90
11136;DHT22;5622;50.840;4.948;2022-09-09T12:56:02;18.00;99.90
11136;DHT22;5622;50.840;4.948;2022-09-09T12:58:31;18.10;99.90
11136;DHT22;5622;50.840;4.948;2022-09-09T13:01:03;18.10;99.90
11136;DHT22;5622;50.840;4.948;2022-09-09T13:03:31;18.20;99.90
11136;DHT22;5622;50.840;4.948;2022-09-09T13:06:11;18.20;99.90
11136;DHT22;5622;50.840;4.948;2022-09-09T13:08:38;18.20;99.90
11136;DHT22;5622;50.840;4.948;2022-09-09T13:11:10;18.30;99.90
11136;DHT22;5622;50.840;4.948;2022-09-09T13:13:41;18.30;99.90
11136;DHT22;5622;50.840;4.948;2022-09-09T13:16:20;18.30;99.90
11136;DHT22;5622;50.840;4.948;2022-09-09T13:18:47;18.30;99.90
11136;DHT22;5622;50.840;4.948;2022-09-09T13:21:15;18.40;99.90
11136;DHT22;5622;50.840;4.948;2022-09-09T13:23:42;18.40;99.90
11136;DHT22;5622;50.840;4.948;2022-09-09T13:26:22;18.30;99.90
11136;DHT22;5622;50.840;4.948;2022-09-09T13:28:50;18.40;99.90
11136;DHT22;5622;50.840;4.948;2022-09-09T13:31:24;18.40;99.90
11136;DHT22;5622;50.840;4.948;2022-09-09T13:33:54;18.30;99.90
11136;DHT22;5622;50.840;4.948;2022-09-09T13:36:29;18.30;99.90
11136;DHT22;5622;50.840;4.948;2022-09-09T13:38:58;18.30;99.90
11136;DHT22;5622;50.840;4.948;2022-09-09T13:41:30;18.40;99.90
11136;DHT22;5622;50.840;4.948;2022-09-09T13:43:59;18.40;99.90
11136;DHT22;5622;50.840;4.948;2022-09-09T13:46:32;18.40;99.90
11136;DHT22;5622;50.840;4.948;2022-09-09T13:49:02;18.50;99.90
11136;DHT22;5622;50.840;4.948;2022-09-09T13:54:20;18.50;99.90
11136;DHT22;5622;50.840;4.948;2022-09-09T13:56:48;18.60;99.90
11136;DHT22;5622;50.840;4.948;2022-09-09T13:59:18;18.60;99.90
11136;DHT22;5622;50.840;4.948;2022-09-09T14:01:48;18.60;99.90
11136;DHT22;5622;50.840;4.948;2022-09-09T14:04:18;18.60;99.90
11136;DHT22;5622;50.840;4.948;2022-09-09T14:06:47;18.60;99.90
11136;DHT22;5622;50.840;4.948;2022-09-09T14:09:16;18.60;99.90
11136;DHT22;5622;50.840;4.948;2022-09-09T14:11:44;18.60;99.90
11136;DHT22;5622;50.840;4.948;2022-09-09T14:14:12;18.60;99.90
11136;DHT22;5622;50.840;4.948;2022-09-09T14:16:40;18.60;99.90
11136;DHT22;5622;50.840;4.948;2022-09-09T14:19:09;18.60;99.90
11136;DHT22;5622;50.840;4.948;2022-09-09T14:21:37;18.70;99.90
11136;DHT22;5622;50.840;4.948;2022-09-09T14:24:05;18.70;99.90
11136;DHT22;5622;50.840;4.948;2022-09-09T14:26:32;18.80;99.90
11136;DHT22;5622;50.840;4.948;2022-09-09T14:28:59;18.90;99.90
11136;DHT22;5622;50.840;4.948;2022-09-09T14:31:27;18.90;99.90
11136;DHT22;5622;50.840;4.948;2022-09-09T14:33:54;19.00;99.90
11136;DHT22;5622;50.840;4.948;2022-09-09T14:36:23;18.90;99.90
11136;DHT22;5622;50.840;4.948;2022-09-09T14:38:50;19.00;99.90
11136;DHT22;5622;50.840;4.948;2022-09-09T14:41:18;19.00;99.90
11136;DHT22;5622;50.840;4.948;2022-09-09T14:43:46;19.10;99.90
11136;DHT22;5622;50.840;4.948;2022-09-09T14:46:14;19.00;99.90
11136;DHT22;5622;50.840;4.948;2022-09-09T14:48:42;19.10;99.90
11136;DHT22;5622;50.840;4.948;2022-09-09T14:51:12;19.10;99.90
11136;DHT22;5622;50.840;4.948;2022-09-09T14:53:42;19.10;99.90
11136;DHT22;5622;50.840;4.948;2022-09-09T14:56:11;19.10;99.90
11136;DHT22;5622;50.840;4.948;2022-09-09T14:58:38;19.20;99.90
11136;DHT22;5622;50.840;4.948;2022-09-09T15:01:07;19.10;99.90
11136;DHT22;5622;50.840;4.948;2022-09-09T15:03:35;19.10;99.90
11136;DHT22;5622;50.840;4.948;2022-09-09T15:06:06;19.10;99.90
11136;DHT22;5622;50.840;4.948;2022-09-09T15:08:35;19.10;99.90
11136;DHT22;5622;50.840;4.948;2022-09-09T15:11:05;19.20;99.90
11136;DHT22;5622;50.840;4.948;2022-09-09T15:13:33;19.10;99.90
11136;DHT22;5622;50.840;4.948;2022-09-09T15:16:04;19.20;99.90
11136;DHT22;5622;50.840;4.948;2022-09-09T15:18:32;19.10;99.90
11136;DHT22;5622;50.840;4.948;2022-09-09T15:20:59;19.20;99.90
11136;DHT22;5622;50.840;4.948;2022-09-09T15:23:28;19.10;99.90
11136;DHT22;5622;50.840;4.948;2022-09-09T15:25:57;19.10;99.90
11136;DHT22;5622;50.840;4.948;2022-09-09T15:28:26;19.20;99.90
11136;DHT22;5622;50.840;4.948;2022-09-09T15:30:54;19.20;99.90
11136;DHT22;5622;50.840;4.948;2022-09-09T15:33:22;19.20;99.90
11136;DHT22;5622;50.840;4.948;2022-09-09T15:35:49;19.20;99.90
11136;DHT22;5622;50.840;4.948;2022-09-09T15:38:16;19.20;99.90
11136;DHT22;5622;50.840;4.948;2022-09-09T15:40:44;19.20;99.90
11136;DHT22;5622;50.840;4.948;2022-09-09T15:43:12;19.10;99.90
11136;DHT22;5622;50.840;4.948;2022-09-09T15:45:40;19.10;99.90
11136;DHT22;5622;50.840;4.948;2022-09-09T15:48:07;19.10;99.90
11136;DHT22;5622;50.840;4.948;2022-09-09T15:50:34;19.00;99.90
11136;DHT22;5622;50.840;4.948;2022-09-09T15:53:02;19.00;99.90
11136;DHT22;5622;50.840;4.948;2022-09-09T15:55:29;19.00;99.90
11136;DHT22;5622;50.840;4.948;2022-09-09T15:57:56;18.90;99.90
11136;DHT22;5622;50.840;4.948;2022-09-09T16:00:23;18.90;99.90
11136;DHT22;5622;50.840;4.948;2022-09-09T16:06:14;18.80;99.90
11136;DHT22;5622;50.840;4.948;2022-09-09T16:08:43;18.80;99.90
11136;DHT22;5622;50.840;4.948;2022-09-09T16:11:13;18.80;99.90
11136;DHT22;5622;50.840;4.948;2022-09-09T16:13:42;18.80;99.90
11136;DHT22;5622;50.840;4.948;2022-09-09T16:16:10;18.80;99.90
11136;DHT22;5622;50.840;4.948;2022-09-09T16:18:41;18.80;99.90
11136;DHT22;5622;50.840;4.948;2022-09-09T16:21:15;18.80;99.90
11136;DHT22;5622;50.840;4.948;2022-09-09T16:23:43;18.80;99.90
11136;DHT22;5622;50.840;4.948;2022-09-09T16:26:12;18.80;99.90
11136;DHT22;5622;50.840;4.948;2022-09-09T16:28:40;18.80;99.90
11136;DHT22;5622;50.840;4.948;2022-09-09T16:31:08;18.80;99.90
11136;DHT22;5622;50.840;4.948;2022-09-09T16:33:35;18.80;99.90
11136;DHT22;5622;50.840;4.948;2022-09-09T16:36:06;18.80;99.90
11136;DHT22;5622;50.840;4.948;2022-09-09T16:38:35;18.80;99.90
11136;DHT22;5622;50.840;4.948;2022-09-09T16:41:03;18.80;99.90
11136;DHT22;5622;50.840;4.948;2022-09-09T16:43:32;18.80;99.90
11136;DHT22;5622;50.840;4.948;2022-09-09T16:45:59;18.90;99.90
11136;DHT22;5622;50.840;4.948;2022-09-09T16:48:30;18.80;99.90
11136;DHT22;5622;50.840;4.948;2022-09-09T16:51:01;18.80;99.90